Poages Mill, Virginia
Current Conditions -  °F | °C
As of 10:54 AM on Friday 28 Nov 2014 (Local Time) from KROA Reporting Station
Broken Clouds Broken Clouds  
Wind Chill: 26°   Ceiling: 3800
Heat Index: 32°   Visibility: 10mi
Dew Point: 16°   Wind: 7mph
Humidity: 52%   Direction: 290°WNW
Pressure: 30.36"   Gusts: NA
Location:  37.2112°N, 80.0525°W
Report Text: KROA 281554Z 29006KT 10SM BKN038 00/M09 A3036 RMK AO2 SLP291 T00001089
Loading
Personal Weather Stations






























Interactive Weather Map New forecast layout! Learn more

10-Day Weather Forecast

Advertisements
Track Severe Weather on mobile